createdAt,value
2023-05-22T00:03:00.616Z,100461.31
2023-05-22T00:08:12.239Z,100459.64
2023-05-22T00:13:21.032Z,100458.98
2023-05-22T00:18:29.388Z,100460.77
2023-05-22T00:23:37.745Z,100456.07
2023-05-22T00:28:46.007Z,100449.41
2023-05-22T00:33:54.131Z,100443.85
2023-05-22T00:39:02.533Z,100445.10
2023-05-22T00:44:11.068Z,100447.02
2023-05-22T00:49:19.579Z,100449.84
2023-05-22T00:54:28.036Z,100448.64
2023-05-22T00:59:36.707Z,100448.48
2023-05-22T01:04:46.061Z,100446.41
2023-05-22T01:09:54.060Z,100446.91
2023-05-22T01:15:10.634Z,100446.72
2023-05-22T01:20:26.350Z,100448.48
2023-05-22T01:25:55.897Z,100450.02
2023-05-22T01:31:09.554Z,100449.61
2023-05-22T01:36:20.637Z,100444.88
2023-05-22T01:41:29.546Z,100444.80
2023-05-22T01:46:37.128Z,100441.23
2023-05-22T01:51:54.140Z,100440.84
2023-05-22T01:57:08.110Z,100439.23
2023-05-22T02:02:19.115Z,100442.14
2023-05-22T02:07:27.190Z,100438.40
2023-05-22T02:12:35.970Z,100439.41
2023-05-22T02:17:45.868Z,100438.14
2023-05-22T02:22:53.330Z,100435.68
2023-05-22T02:28:00.682Z,100432.85
2023-05-22T02:33:09.751Z,100424.09
2023-05-22T02:38:17.253Z,100425.25
2023-05-22T02:43:25.295Z,100418.04
2023-05-22T02:48:32.757Z,100420.55
2023-05-22T02:53:41.759Z,100422.55
2023-05-22T02:58:49.131Z,100420.33
2023-05-22T03:03:56.674Z,100415.85
2023-05-22T03:09:05.252Z,100416.41
2023-05-22T03:14:12.894Z,100413.30
2023-05-22T03:19:20.632Z,100414.29
2023-05-22T03:24:28.297Z,100414.23
2023-05-22T03:29:36.757Z,100412.02
2023-05-22T03:34:45.177Z,100411.70
2023-05-22T03:39:52.820Z,100411.02
2023-05-22T03:45:08.018Z,100413.34
2023-05-22T03:50:16.058Z,100408.59
2023-05-22T03:55:23.406Z,100405.92
2023-05-22T04:00:32.223Z,100406.70
2023-05-22T04:05:39.519Z,100407.27
2023-05-22T04:10:47.287Z,100404.71
2023-05-22T04:15:54.762Z,100405.84
2023-05-22T04:21:03.385Z,100406.27
2023-05-22T04:26:11.118Z,100401.38
2023-05-22T04:31:18.943Z,100395.83
2023-05-22T04:36:27.142Z,100392.13
2023-05-22T04:41:34.776Z,100387.44
2023-05-22T04:46:42.168Z,100386.83
2023-05-22T04:51:50.088Z,100386.55
2023-05-22T04:56:57.897Z,100384.30
2023-05-22T05:02:07.201Z,100384.49
2023-05-22T05:07:18.018Z,100379.95
2023-05-22T05:12:25.585Z,100378.23
2023-05-22T05:17:33.306Z,100367.88
2023-05-22T05:22:40.934Z,100378.13
2023-05-22T05:27:49.296Z,100377.67
2023-05-22T05:32:58.879Z,100374.53
2023-05-22T05:38:30.601Z,100372.60
2023-05-22T05:43:39.063Z,100368.21
2023-05-22T05:48:49.328Z,100360.48
2023-05-22T05:53:57.816Z,100363.75
2023-05-22T05:59:06.419Z,100362.21
2023-05-22T06:04:20.526Z,100360.32
2023-05-22T06:09:29.372Z,100354.89
2023-05-22T06:14:46.646Z,100354.85
2023-05-22T06:19:55.878Z,100353.80
2023-05-22T06:25:03.834Z,100350.27
2023-05-22T06:30:16.840Z,100348.58
2023-05-22T06:35:29.629Z,100339.98
2023-05-22T06:40:39.292Z,100340.96
2023-05-22T06:46:00.089Z,100339.77
2023-05-22T06:51:19.624Z,100334.38
2023-05-22T06:56:30.548Z,100328.70
2023-05-22T07:01:41.864Z,100329.86
2023-05-22T07:06:52.682Z,100322.72
2023-05-22T07:12:02.189Z,100325.42
2023-05-22T07:17:12.002Z,100314.73
2023-05-22T07:22:22.623Z,100315.67
2023-05-22T07:27:30.409Z,100320.03
2023-05-22T07:32:39.222Z,100318.61
2023-05-22T07:37:48.299Z,100320.55
2023-05-22T07:42:57.151Z,100318.31
2023-05-22T07:48:05.367Z,100315.69
2023-05-22T07:53:16.976Z,100312.27
2023-05-22T07:58:26.409Z,100295.33
2023-05-22T08:03:34.524Z,100312.73
2023-05-22T08:08:42.371Z,100308.10
2023-05-22T08:13:50.830Z,100307.40
2023-05-22T08:18:58.697Z,100302.20
2023-05-22T08:24:07.524Z,100300.38
2023-05-22T08:29:15.754Z,100301.81
2023-05-22T08:34:23.750Z,100298.25
2023-05-22T08:39:31.820Z,100292.75
2023-05-22T08:44:39.730Z,100285.73
2023-05-22T08:49:51.674Z,100282.98
2023-05-22T08:54:59.828Z,100284.83
2023-05-22T09:00:09.178Z,100282.17
2023-05-22T09:05:18.020Z,100274.67
2023-05-22T09:10:25.698Z,100272.75
2023-05-22T09:15:35.973Z,100269.89
2023-05-22T09:20:43.648Z,100262.09
2023-05-22T09:25:52.854Z,100260.02
2023-05-22T09:31:04.163Z,100251.23
2023-05-22T09:36:14.354Z,100251.06
2023-05-22T09:41:26.676Z,100249.23
2023-05-22T09:46:42.052Z,100248.24
2023-05-22T09:51:51.305Z,100250.37
2023-05-22T09:57:01.165Z,100246.70
2023-05-22T10:02:11.377Z,100241.56
2023-05-22T10:07:20.815Z,100232.58
2023-05-22T10:12:30.563Z,100229.70
2023-05-22T10:17:38.564Z,100225.58
2023-05-22T10:22:49.269Z,100226.12
2023-05-22T10:27:57.750Z,100223.52
2023-05-22T10:33:12.868Z,100215.54
2023-05-22T10:38:45.916Z,100209.60
2023-05-22T10:43:54.138Z,100208.20
2023-05-22T10:49:02.187Z,100195.41
2023-05-22T10:54:10.345Z,100189.06
2023-05-22T10:59:17.741Z,100183.36
2023-05-22T11:04:26.687Z,100177.71
2023-05-22T11:09:36.357Z,100174.79
2023-05-22T11:14:44.542Z,100167.51
2023-05-22T11:20:02.495Z,100168.95
2023-05-22T11:25:12.689Z,100168.58
2023-05-22T11:30:20.966Z,100164.06
2023-05-22T11:35:29.170Z,100159.91
2023-05-22T11:40:37.124Z,100162.08
2023-05-22T11:45:45.193Z,100157.97
2023-05-22T11:50:53.179Z,100156.33
2023-05-22T11:56:06.374Z,100158.11
2023-05-22T12:01:14.486Z,100151.75
2023-05-22T12:06:22.908Z,100143.84
2023-05-22T12:11:36.946Z,100139.51
2023-05-22T12:16:46.358Z,100137.11
2023-05-22T12:21:55.932Z,100136.23
2023-05-22T12:27:03.672Z,100129.53
2023-05-22T12:32:12.830Z,100129.53
2023-05-22T12:37:25.671Z,100124.64
2023-05-22T12:42:33.676Z,100123.13
2023-05-22T12:47:42.123Z,100119.58
2023-05-22T12:52:50.419Z,100119.02
2023-05-22T12:57:58.722Z,100115.63
2023-05-22T13:03:07.551Z,100110.03
2023-05-22T13:08:16.752Z,100107.63
2023-05-22T13:13:25.167Z,100103.91
2023-05-22T13:18:33.275Z,100105.67
2023-05-22T13:23:41.541Z,100101.98
2023-05-22T13:28:49.599Z,100098.65
2023-05-22T13:33:57.557Z,100096.50
2023-05-22T13:39:06.684Z,100091.16
2023-05-22T13:44:14.464Z,100089.88
2023-05-22T13:49:22.730Z,100085.70
2023-05-22T13:54:31.460Z,100085.13
2023-05-22T13:59:39.577Z,100086.65
2023-05-22T14:04:48.703Z,100079.09
2023-05-22T14:09:58.079Z,100069.55
2023-05-22T14:15:08.937Z,100069.05
2023-05-22T14:20:17.834Z,100069.08
2023-05-22T14:25:26.948Z,100058.63
2023-05-22T14:30:35.232Z,100048.34
2023-05-22T14:35:43.509Z,100057.30
2023-05-22T14:40:52.637Z,100056.54
2023-05-22T14:46:00.596Z,100053.09
2023-05-22T14:51:08.535Z,100052.80
2023-05-22T14:56:16.968Z,100043.36
2023-05-22T15:01:24.895Z,100046.27
2023-05-22T15:06:34.059Z,100038.85
2023-05-22T15:11:46.706Z,100036.54
2023-05-22T15:16:54.433Z,100031.20
2023-05-22T15:22:15.710Z,100032.23
2023-05-22T15:27:26.947Z,100031.28
2023-05-22T16:33:49.846Z,99984.75
2023-05-22T16:38:58.168Z,99989.40
2023-05-22T16:44:06.114Z,99992.15
2023-05-22T16:49:13.964Z,100001.73
2023-05-22T16:54:22.188Z,100004.40
2023-05-22T16:59:30.255Z,100002.10
2023-05-22T17:04:39.000Z,100000.46
2023-05-22T17:09:47.533Z,100001.30
2023-05-22T17:14:55.612Z,100006.57
2023-05-22T17:20:06.635Z,100004.11
2023-05-22T17:25:16.040Z,100001.54
2023-05-22T17:30:25.012Z,99999.13
2023-05-22T17:35:33.320Z,99997.52
2023-05-22T17:40:45.457Z,99997.84
2023-05-22T17:45:54.956Z,99996.23
2023-05-22T17:51:03.197Z,99994.73
2023-05-22T17:56:11.541Z,99993.59
2023-05-22T18:01:20.284Z,99991.45
2023-05-22T18:06:29.142Z,99976.71
2023-05-22T18:11:37.010Z,99993.09
2023-05-22T18:16:45.477Z,99994.42
2023-05-22T18:21:54.306Z,99988.59
2023-05-22T18:27:02.416Z,99977.64
2023-05-22T18:32:12.286Z,99993.95
2023-05-22T18:37:21.630Z,99992.99
2023-05-22T18:42:30.178Z,99997.20
2023-05-22T18:47:38.562Z,100006.61
2023-05-22T18:52:46.765Z,100005.46
2023-05-22T18:57:54.346Z,100006.59
2023-05-22T19:03:02.900Z,99999.80
2023-05-22T19:08:11.814Z,99992.42
2023-05-22T19:13:19.739Z,99980.70
2023-05-22T19:18:28.850Z,99999.75
2023-05-22T19:23:37.963Z,100001.79
2023-05-22T19:28:45.741Z,100005.94
2023-05-22T19:33:53.752Z,100010.10
2023-05-22T19:39:02.315Z,100007.98
2023-05-22T19:44:10.300Z,100005.66
2023-05-22T19:49:18.577Z,100010.61
2023-05-22T19:54:27.281Z,100002.66
2023-05-22T19:59:36.688Z,99997.28
2023-05-22T20:04:49.296Z,99994.70
2023-05-22T20:09:57.704Z,99998.14
2023-05-22T20:15:07.280Z,99993.24
2023-05-22T20:20:16.134Z,99997.69
2023-05-22T20:25:25.071Z,99996.27
2023-05-22T20:30:33.060Z,99999.61
2023-05-22T20:35:41.501Z,99997.67
2023-05-22T20:40:50.128Z,99995.18
2023-05-22T20:45:58.642Z,99994.28
2023-05-22T20:51:07.290Z,99991.14
2023-05-22T20:56:15.346Z,99991.91
2023-05-22T21:01:22.982Z,99990.34
2023-05-22T21:06:30.567Z,99985.77
2023-05-22T21:11:38.729Z,99988.14
2023-05-22T21:16:46.592Z,99989.99
2023-05-22T21:21:54.572Z,99988.08
2023-05-22T21:27:02.911Z,99989.31
2023-05-22T21:32:11.406Z,99993.67
2023-05-22T21:37:19.123Z,99992.83
2023-05-22T21:42:34.806Z,99988.95
2023-05-22T21:47:53.071Z,99986.08
2023-05-22T21:53:01.771Z,99982.45
2023-05-22T21:58:10.794Z,99983.77
2023-05-22T22:03:18.744Z,99986.34
2023-05-22T22:08:28.751Z,99987.42
2023-05-22T22:13:36.517Z,99987.82
2023-05-22T22:18:45.146Z,99979.48
2023-05-22T22:23:52.749Z,99974.30
2023-05-22T22:29:00.662Z,99975.36
2023-05-22T22:34:08.544Z,99970.45
2023-05-22T22:39:16.506Z,99964.24
2023-05-22T22:44:24.436Z,99962.33
2023-05-22T22:49:33.224Z,99958.98
2023-05-22T22:54:43.072Z,99958.22
2023-05-22T22:59:52.757Z,99962.11
2023-05-22T23:05:01.003Z,99958.80
2023-05-22T23:10:10.673Z,99956.55
2023-05-22T23:15:18.839Z,99954.49
2023-05-22T23:20:26.772Z,99949.54
2023-05-22T23:25:35.303Z,99946.11
2023-05-22T23:30:43.279Z,99942.67
2023-05-22T23:35:52.480Z,99939.81
2023-05-22T23:41:00.380Z,99937.80
2023-05-22T23:46:08.282Z,99931.73
2023-05-22T23:51:15.970Z,99928.77
2023-05-22T23:56:23.944Z,99922.58
